createdAt,value
2017-12-16T00:01:56.293Z,6.95
2017-12-16T00:04:24.318Z,4.78
2017-12-16T00:06:52.305Z,6.10
2017-12-16T00:09:20.333Z,6.30
2017-12-16T00:11:48.338Z,6.35
2017-12-16T00:14:16.349Z,4.95
2017-12-16T00:16:44.376Z,4.80
2017-12-16T00:19:12.392Z,5.65
2017-12-16T00:21:41.174Z,5.57
2017-12-16T00:24:09.204Z,5.62
2017-12-16T00:26:37.188Z,7.07
2017-12-16T00:29:05.175Z,4.80
2017-12-16T00:31:34.086Z,5.47
2017-12-16T00:34:02.072Z,4.75
2017-12-16T00:36:30.108Z,6.62
2017-12-16T00:38:58.908Z,5.80
2017-12-16T00:41:27.660Z,5.68
2017-12-16T00:43:55.644Z,4.03
2017-12-16T00:46:23.674Z,4.55
2017-12-16T00:48:52.427Z,4.50
2017-12-16T00:51:20.412Z,4.60
2017-12-16T00:53:48.428Z,6.20
2017-12-16T00:56:16.421Z,7.82
2017-12-16T00:58:44.405Z,8.00
2017-12-16T01:01:13.180Z,7.07
2017-12-16T01:03:41.172Z,9.15
2017-12-16T01:06:09.171Z,5.20
2017-12-16T01:08:37.945Z,6.28
2017-12-16T01:11:05.948Z,6.37
2017-12-16T01:13:34.707Z,6.97
2017-12-16T01:16:02.924Z,5.93
2017-12-16T01:18:31.696Z,5.37
2017-12-16T01:20:59.683Z,5.80
2017-12-16T01:23:27.711Z,5.53
2017-12-16T01:25:56.459Z,7.22
2017-12-16T01:28:24.444Z,4.95
2017-12-16T01:30:52.464Z,5.95
2017-12-16T01:33:32.447Z,8.82
2017-12-16T01:36:13.219Z,8.98
2017-12-16T01:38:41.996Z,5.28
2017-12-16T01:41:10.076Z,3.92
2017-12-16T01:43:38.167Z,5.18
2017-12-16T01:46:06.221Z,7.25
2017-12-16T01:48:34.273Z,10.45
2017-12-16T01:51:03.089Z,5.05
2017-12-16T01:53:31.133Z,6.60
2017-12-16T01:55:59.197Z,5.90
2017-12-16T01:58:27.229Z,6.12
2017-12-16T02:00:56.052Z,5.75
2017-12-16T02:03:24.085Z,6.18
2017-12-16T02:05:53.672Z,6.25
2017-12-16T02:08:21.713Z,5.47
2017-12-16T02:10:50.529Z,6.60
2017-12-16T02:13:18.597Z,6.30
2017-12-16T02:15:47.424Z,5.93
2017-12-16T02:18:15.637Z,5.45
2017-12-16T02:20:43.703Z,7.32
2017-12-16T02:23:11.776Z,7.82
2017-12-16T02:25:39.861Z,8.95
2017-12-16T02:28:07.902Z,8.07
2017-12-16T02:30:35.961Z,5.70
2017-12-16T02:33:03.997Z,6.57
2017-12-16T02:35:32.929Z,7.70
2017-12-16T02:38:00.978Z,6.87
2017-12-16T02:40:29.765Z,5.93
2017-12-16T02:42:57.853Z,8.70
2017-12-16T02:45:25.896Z,5.95
2017-12-16T02:47:53.958Z,7.43
2017-12-16T02:50:21.997Z,7.87
2017-12-16T02:52:50.073Z,8.07
2017-12-16T02:55:18.875Z,4.68
2017-12-16T02:57:46.919Z,7.55
2017-12-16T03:00:14.978Z,9.02
2017-12-16T03:02:43.802Z,9.45
2017-12-16T03:05:11.873Z,9.30
2017-12-16T03:07:40.678Z,8.68
2017-12-16T03:10:08.837Z,5.72
2017-12-16T03:12:36.865Z,5.28
2017-12-16T03:15:04.912Z,6.65
2017-12-16T03:17:33.738Z,8.30
2017-12-16T03:20:02.130Z,7.37
2017-12-16T03:22:30.200Z,9.23
2017-12-16T03:24:58.240Z,7.10
2017-12-16T03:27:26.277Z,7.22
2017-12-16T03:29:54.337Z,6.20
2017-12-16T03:32:23.148Z,6.70
2017-12-16T03:34:51.956Z,8.60
2017-12-16T03:37:19.993Z,6.68
2017-12-16T03:39:48.054Z,5.22
2017-12-16T03:42:16.101Z,8.07
2017-12-16T03:44:44.914Z,10.00
2017-12-16T03:47:12.965Z,7.43
2017-12-16T03:49:41.016Z,6.18
2017-12-16T03:52:09.065Z,6.43
2017-12-16T03:54:37.120Z,5.90
2017-12-16T03:57:05.169Z,9.00
2017-12-16T03:59:33.245Z,7.62
2017-12-16T04:02:01.307Z,10.70
2017-12-16T04:04:29.357Z,6.12
2017-12-16T04:06:57.397Z,9.90
2017-12-16T04:09:25.501Z,4.80
2017-12-16T04:11:53.532Z,7.37
2017-12-16T04:14:21.569Z,9.25
2017-12-16T04:16:49.624Z,8.27
2017-12-16T04:19:17.653Z,6.97
2017-12-16T04:21:47.212Z,9.80
2017-12-16T04:24:15.253Z,8.02
2017-12-16T04:26:43.357Z,8.38
2017-12-16T04:29:12.179Z,7.55
2017-12-16T04:31:40.213Z,6.82
2017-12-16T04:34:08.307Z,9.50
2017-12-16T04:36:36.344Z,6.22
2017-12-16T04:39:04.410Z,6.43
2017-12-16T04:41:32.438Z,8.75
2017-12-16T04:44:00.504Z,5.43
2017-12-16T04:46:28.541Z,5.65
2017-12-16T04:48:57.354Z,7.72
2017-12-16T04:51:26.164Z,6.28
2017-12-16T04:53:54.207Z,6.62
2017-12-16T04:56:22.253Z,6.62
2017-12-16T04:58:50.297Z,7.65
2017-12-16T05:01:19.157Z,6.70
2017-12-16T05:03:47.224Z,12.30
2017-12-16T05:06:15.296Z,11.57
2017-12-16T05:08:43.365Z,7.07
2017-12-16T05:11:11.412Z,6.45
2017-12-16T05:13:39.477Z,7.62
2017-12-16T05:16:07.518Z,7.45
2017-12-16T05:18:35.613Z,6.47
2017-12-16T05:21:03.689Z,6.15
2017-12-16T05:23:31.736Z,7.03
2017-12-16T05:25:59.792Z,10.60
2017-12-16T05:28:27.833Z,8.00
2017-12-16T05:30:56.652Z,6.05
2017-12-16T05:33:24.683Z,6.35
2017-12-16T05:35:52.753Z,6.75
2017-12-16T05:38:20.784Z,6.07
2017-12-16T05:40:49.585Z,6.75
2017-12-16T05:43:18.413Z,11.55
2017-12-16T05:45:46.452Z,7.35
2017-12-16T05:48:15.280Z,5.47
2017-12-16T05:50:43.340Z,6.65
2017-12-16T05:53:12.172Z,9.35
2017-12-16T05:55:40.217Z,7.80
2017-12-16T05:58:08.265Z,8.02
2017-12-16T06:00:36.322Z,10.13
2017-12-16T06:03:04.377Z,7.30
2017-12-16T06:05:33.189Z,5.53
2017-12-16T06:08:02.221Z,7.20
2017-12-16T06:10:30.257Z,5.78
2017-12-16T06:12:58.289Z,7.30
2017-12-16T06:15:26.348Z,7.95
2017-12-16T06:17:55.149Z,8.95
2017-12-16T06:20:23.210Z,7.87
2017-12-16T06:22:51.252Z,11.15
2017-12-16T06:25:19.333Z,9.05
2017-12-16T06:27:47.373Z,12.10
2017-12-16T06:30:16.172Z,9.82
2017-12-16T06:32:45.009Z,9.10
2017-12-16T06:35:13.082Z,9.98
2017-12-16T06:37:41.916Z,8.32
2017-12-16T06:40:09.993Z,7.80
2017-12-16T06:42:38.049Z,10.10
2017-12-16T06:45:06.092Z,12.00
2017-12-16T06:47:34.188Z,8.10
2017-12-16T06:50:02.212Z,10.35
2017-12-16T06:52:30.261Z,12.57
2017-12-16T06:54:58.312Z,10.13
2017-12-16T06:57:26.393Z,9.32
2017-12-16T06:59:54.433Z,8.60
2017-12-16T07:02:23.233Z,10.88
2017-12-16T07:04:52.273Z,10.13
2017-12-16T07:07:20.472Z,12.10
2017-12-16T07:09:48.553Z,11.98
2017-12-16T07:12:16.605Z,16.08
2017-12-16T07:14:44.669Z,10.48
2017-12-16T07:17:13.488Z,10.18
2017-12-16T07:19:41.592Z,10.40
2017-12-16T07:22:10.384Z,10.93
2017-12-16T07:24:38.448Z,9.02
2017-12-16T07:27:07.244Z,11.68
2017-12-16T07:29:36.076Z,13.27
2017-12-16T07:32:04.105Z,12.15
2017-12-16T07:34:32.169Z,11.95
2017-12-16T07:37:00.206Z,12.77
2017-12-16T07:39:29.049Z,12.65
2017-12-16T07:41:57.085Z,12.43
2017-12-16T07:44:25.886Z,13.20
2017-12-16T07:46:53.959Z,11.48
2017-12-16T07:49:22.758Z,13.30
2017-12-16T07:51:50.812Z,12.45
2017-12-16T07:54:18.850Z,11.93
2017-12-16T07:56:46.912Z,15.10
2017-12-16T07:59:15.713Z,9.43
2017-12-16T08:01:43.781Z,13.13
2017-12-16T08:04:11.852Z,15.25
2017-12-16T08:06:39.925Z,21.50
2017-12-16T08:09:07.961Z,11.65
2017-12-16T08:11:36.785Z,14.65
2017-12-16T08:14:04.824Z,11.40
2017-12-16T08:16:32.884Z,11.10
2017-12-16T08:19:00.928Z,14.00
2017-12-16T08:21:29.000Z,16.80
2017-12-16T08:23:57.803Z,13.95
2017-12-16T08:26:26.600Z,16.23
2017-12-16T08:28:55.425Z,15.13
2017-12-16T08:31:23.457Z,13.30
2017-12-16T08:33:51.519Z,14.80
2017-12-16T08:36:19.562Z,15.40
2017-12-16T08:38:48.392Z,18.95
2017-12-16T08:41:16.426Z,17.83
2017-12-16T08:43:44.496Z,16.83
2017-12-16T08:46:12.544Z,16.98
2017-12-16T08:48:40.585Z,16.60
2017-12-16T08:51:09.402Z,11.15
2017-12-16T08:53:37.445Z,15.68
2017-12-16T08:56:05.500Z,16.60
2017-12-16T08:58:33.551Z,19.05
2017-12-16T09:01:01.609Z,19.45
2017-12-16T09:03:29.653Z,16.60
2017-12-16T09:05:57.725Z,15.80
2017-12-16T09:08:25.769Z,15.63
2017-12-16T09:10:53.829Z,16.15
2017-12-16T09:13:21.865Z,22.10
2017-12-16T09:15:49.921Z,15.88
2017-12-16T09:18:18.725Z,14.45
2017-12-16T09:20:47.577Z,14.25
2017-12-16T09:23:15.629Z,26.75
2017-12-16T09:25:43.687Z,17.20
2017-12-16T09:28:11.749Z,17.17
2017-12-16T09:30:39.808Z,21.25
2017-12-16T09:33:07.868Z,19.08
2017-12-16T09:35:35.912Z,16.95
2017-12-16T09:38:03.969Z,13.05
2017-12-16T09:40:32.016Z,17.27
2017-12-16T09:43:00.078Z,14.80
2017-12-16T09:45:28.528Z,13.90
2017-12-16T09:47:56.707Z,19.55
2017-12-16T09:50:24.734Z,20.23
2017-12-16T09:52:52.768Z,18.50
2017-12-16T09:55:20.866Z,15.18
2017-12-16T09:57:48.920Z,15.07
2017-12-16T10:00:16.982Z,17.42
2017-12-16T10:02:45.792Z,15.88
2017-12-16T10:05:14.621Z,14.65
2017-12-16T10:07:42.746Z,16.60
2017-12-16T10:10:10.841Z,14.27
2017-12-16T10:12:38.897Z,15.23
2017-12-16T10:15:07.712Z,16.42
2017-12-16T10:17:35.768Z,11.88
2017-12-16T10:20:03.864Z,15.98
2017-12-16T10:22:31.884Z,11.35
2017-12-16T10:25:00.713Z,9.70
2017-12-16T10:27:28.757Z,9.82
2017-12-16T10:29:56.846Z,9.35
2017-12-16T10:32:24.864Z,8.35
2017-12-16T10:34:52.905Z,13.75
2017-12-16T10:37:20.965Z,11.15
2017-12-16T10:39:49.013Z,11.50
2017-12-16T10:42:17.081Z,10.50
2017-12-16T10:44:45.884Z,9.30
2017-12-16T10:47:14.707Z,9.48
2017-12-16T10:49:42.787Z,11.82
2017-12-16T10:52:10.841Z,10.63
2017-12-16T10:54:38.898Z,8.48
2017-12-16T10:57:06.945Z,11.73
2017-12-16T10:59:34.981Z,9.30
2017-12-16T11:02:03.053Z,10.32
2017-12-16T11:04:31.100Z,10.18
2017-12-16T11:06:59.178Z,9.75
2017-12-16T11:09:27.206Z,9.68
2017-12-16T11:11:55.236Z,10.38
2017-12-16T11:14:23.305Z,11.18
2017-12-16T11:16:52.104Z,13.15
2017-12-16T11:19:20.933Z,11.18
2017-12-16T11:21:48.997Z,11.70
2017-12-16T11:24:17.097Z,11.63
2017-12-16T11:26:45.145Z,13.18
2017-12-16T11:29:13.185Z,9.95
2017-12-16T11:31:41.241Z,9.30
2017-12-16T11:34:09.303Z,8.35
2017-12-16T11:36:38.129Z,9.63
2017-12-16T11:39:06.228Z,8.57
2017-12-16T11:41:34.296Z,9.85
2017-12-16T11:44:02.332Z,9.32
2017-12-16T11:46:30.389Z,8.70
2017-12-16T11:48:58.446Z,10.30
2017-12-16T11:51:27.297Z,9.82
2017-12-16T11:53:55.337Z,11.10
2017-12-16T11:56:23.369Z,10.75
2017-12-16T11:58:51.434Z,10.13
2017-12-16T12:01:19.473Z,12.55
2017-12-16T12:03:48.300Z,9.45
2017-12-16T12:06:16.332Z,12.90
2017-12-16T12:08:44.408Z,9.57
2017-12-16T12:11:12.488Z,9.15
2017-12-16T12:13:40.524Z,9.88
2017-12-16T12:16:08.590Z,10.45
2017-12-16T12:18:38.413Z,8.85
2017-12-16T12:21:07.236Z,8.02
2017-12-16T12:23:36.043Z,9.00
2017-12-16T12:26:04.096Z,12.25
2017-12-16T12:28:32.128Z,8.35
2017-12-16T12:31:00.180Z,10.95
2017-12-16T12:33:28.226Z,5.57
2017-12-16T12:35:56.264Z,9.30
2017-12-16T12:38:24.300Z,6.18
2017-12-16T12:40:52.361Z,7.22
2017-12-16T12:43:20.976Z,9.27
2017-12-16T12:45:49.036Z,5.22
2017-12-16T12:48:17.125Z,5.30
2017-12-16T12:50:45.906Z,7.75
2017-12-16T12:53:13.932Z,8.18
2017-12-16T12:55:42.110Z,6.12
2017-12-16T12:58:10.233Z,9.65
2017-12-16T13:00:38.340Z,8.15
2017-12-16T13:03:06.361Z,6.93
2017-12-16T13:05:34.401Z,8.05
2017-12-16T13:08:02.461Z,4.70
2017-12-16T13:10:31.256Z,5.22
2017-12-16T13:12:59.311Z,7.30
2017-12-16T13:15:27.333Z,5.53
2017-12-16T13:17:56.153Z,6.68
2017-12-16T13:20:24.193Z,9.00
2017-12-16T13:22:52.258Z,9.90
2017-12-16T13:25:21.101Z,5.18
2017-12-16T13:27:49.487Z,9.23
2017-12-16T13:30:17.705Z,4.22
2017-12-16T13:32:45.742Z,5.45
2017-12-16T13:35:13.814Z,5.65
2017-12-16T13:37:41.849Z,5.10
2017-12-16T13:40:09.917Z,6.28
2017-12-16T13:42:38.727Z,5.55
2017-12-16T13:45:07.566Z,5.90
2017-12-16T13:47:35.620Z,11.35
2017-12-16T13:50:04.433Z,6.93
2017-12-16T13:52:32.486Z,7.87
2017-12-16T13:55:01.287Z,7.32
2017-12-16T13:57:29.337Z,5.57
2017-12-16T13:59:57.370Z,9.57
2017-12-16T14:02:26.230Z,7.07
2017-12-16T14:04:54.276Z,4.70
2017-12-16T14:07:22.302Z,6.82
2017-12-16T14:09:50.366Z,11.10
2017-12-16T14:12:18.397Z,6.62
2017-12-16T14:14:46.452Z,15.65
2017-12-16T14:17:14.513Z,8.02
2017-12-16T14:19:42.685Z,7.87
2017-12-16T14:22:10.712Z,9.23
2017-12-16T14:24:38.751Z,8.23
2017-12-16T14:27:06.820Z,6.28
2017-12-16T14:29:34.853Z,9.07
2017-12-16T14:32:02.928Z,7.68
2017-12-16T14:34:31.044Z,11.38
2017-12-16T14:36:59.093Z,8.80
2017-12-16T14:39:27.181Z,7.75
2017-12-16T14:41:55.249Z,10.95
2017-12-16T14:44:23.287Z,8.48
2017-12-16T14:46:51.342Z,7.62
2017-12-16T14:49:19.384Z,10.38
2017-12-16T14:51:47.437Z,8.60
2017-12-16T14:54:15.464Z,6.57
2017-12-16T14:56:43.544Z,8.13
2017-12-16T14:59:11.572Z,7.68
2017-12-16T15:01:39.634Z,7.97
2017-12-16T15:04:07.659Z,6.62
2017-12-16T15:06:36.493Z,7.20
2017-12-16T15:09:04.560Z,9.23
2017-12-16T15:11:33.517Z,7.10
2017-12-16T15:14:01.576Z,6.40
2017-12-16T15:16:29.612Z,7.07
2017-12-16T15:18:57.679Z,10.27
2017-12-16T15:21:25.716Z,10.45
2017-12-16T15:23:53.791Z,6.75
2017-12-16T15:26:21.869Z,9.27
2017-12-16T15:28:50.689Z,7.72
2017-12-16T15:31:18.721Z,7.80
2017-12-16T15:33:46.817Z,9.75
2017-12-16T15:36:14.897Z,10.52
2017-12-16T15:38:43.101Z,8.70
2017-12-16T15:41:11.983Z,9.38
2017-12-16T15:43:40.817Z,11.63
2017-12-16T15:46:08.911Z,9.45
2017-12-16T15:48:38.710Z,11.02
2017-12-16T15:51:06.856Z,11.90
2017-12-16T15:53:34.898Z,11.93
2017-12-16T15:56:02.967Z,17.42
2017-12-16T15:58:31.813Z,9.35
2017-12-16T16:00:59.893Z,13.00
2017-12-16T16:03:27.932Z,13.70
2017-12-16T16:05:56.793Z,14.23
2017-12-16T16:08:24.862Z,12.25
2017-12-16T16:10:52.983Z,9.32
2017-12-16T16:13:21.167Z,12.30
2017-12-16T16:15:49.278Z,13.15
2017-12-16T16:18:17.369Z,11.20
2017-12-16T16:20:46.217Z,12.73
2017-12-16T16:23:14.266Z,12.07
2017-12-16T16:25:42.333Z,13.35
2017-12-16T16:28:11.243Z,13.68
2017-12-16T16:30:40.105Z,10.55
2017-12-16T16:33:08.140Z,15.25
2017-12-16T16:35:36.384Z,12.63
2017-12-16T16:38:04.461Z,18.85
2017-12-16T16:40:32.834Z,15.65
2017-12-16T16:43:01.006Z,13.23
2017-12-16T16:45:29.090Z,28.45
2017-12-16T16:47:57.190Z,15.60
2017-12-16T16:50:25.300Z,13.50
2017-12-16T16:52:53.328Z,12.37
2017-12-16T16:55:21.368Z,15.35
2017-12-16T16:57:49.469Z,16.05
2017-12-16T17:00:17.500Z,13.55
2017-12-16T17:02:45.701Z,11.25
2017-12-16T17:05:13.761Z,13.38
2017-12-16T17:07:41.813Z,14.00
2017-12-16T17:10:09.881Z,16.48
2017-12-16T17:12:37.905Z,15.82
2017-12-16T17:15:06.106Z,18.25
2017-12-16T17:17:34.144Z,15.52
2017-12-16T17:20:04.466Z,15.30
2017-12-16T17:22:32.754Z,16.83
2017-12-16T17:25:00.784Z,14.82
2017-12-16T17:27:28.858Z,21.20
2017-12-16T17:29:57.678Z,11.68
2017-12-16T17:32:26.516Z,11.75
2017-12-16T17:34:54.539Z,16.60
2017-12-16T17:37:22.588Z,14.32
2017-12-16T17:39:50.669Z,15.10
2017-12-16T17:42:18.713Z,12.23
2017-12-16T17:44:46.753Z,22.55
2017-12-16T17:47:14.849Z,13.35
2017-12-16T17:49:42.945Z,16.02
2017-12-16T17:52:11.004Z,13.00
2017-12-16T17:54:39.061Z,14.25
2017-12-16T17:57:07.233Z,16.02
2017-12-16T17:59:35.281Z,14.50
2017-12-16T18:02:03.326Z,14.48
2017-12-16T18:04:31.384Z,15.50
2017-12-16T18:06:59.421Z,14.52
2017-12-16T18:09:27.480Z,19.00
2017-12-16T18:11:55.524Z,14.95
2017-12-16T18:14:23.604Z,13.57
2017-12-16T18:16:52.397Z,18.10
2017-12-16T18:19:20.449Z,20.17
2017-12-16T18:21:48.496Z,15.38
2017-12-16T18:24:16.560Z,14.52
2017-12-16T18:26:44.616Z,10.23
2017-12-16T18:29:12.679Z,15.85
2017-12-16T18:31:40.953Z,17.45
2017-12-16T18:34:08.982Z,17.70
2017-12-16T18:36:37.781Z,17.02
2017-12-16T18:39:06.625Z,17.48
2017-12-16T18:41:34.665Z,13.05
2017-12-16T18:44:02.720Z,12.37
2017-12-16T18:46:30.845Z,17.12
2017-12-16T18:48:58.903Z,14.15
2017-12-16T18:51:26.930Z,18.27
2017-12-16T18:53:55.026Z,15.48
2017-12-16T18:56:23.064Z,15.95
2017-12-16T18:58:51.106Z,14.60
2017-12-16T19:01:19.175Z,12.85
2017-12-16T19:03:47.209Z,13.95
2017-12-16T19:06:15.350Z,14.43
2017-12-16T19:08:43.389Z,19.10
2017-12-16T19:11:11.428Z,17.05
2017-12-16T19:13:39.492Z,13.30
2017-12-16T19:16:07.524Z,13.52
2017-12-16T19:18:37.608Z,14.15
2017-12-16T19:21:05.637Z,22.58
2017-12-16T19:23:33.664Z,15.82
2017-12-16T19:26:01.717Z,13.73
2017-12-16T19:28:29.807Z,12.07
2017-12-16T19:30:57.857Z,12.65
2017-12-16T19:33:25.897Z,12.00
2017-12-16T19:35:54.719Z,13.48
2017-12-16T19:38:22.741Z,17.42
2017-12-16T19:40:50.833Z,14.05
2017-12-16T19:43:18.918Z,11.38
2017-12-16T19:45:46.949Z,15.73
2017-12-16T19:48:15.020Z,20.02
2017-12-16T19:50:43.073Z,12.32
2017-12-16T19:53:11.142Z,12.05
2017-12-16T19:55:39.165Z,11.75
2017-12-16T19:58:07.233Z,9.65
2017-12-16T20:00:36.046Z,13.35
2017-12-16T20:03:04.961Z,12.70
2017-12-16T20:05:33.007Z,19.60
2017-12-16T20:08:01.050Z,10.02
2017-12-16T20:10:29.101Z,14.00
2017-12-16T20:12:57.909Z,11.48
2017-12-16T20:15:25.958Z,12.82
2017-12-16T20:17:54.000Z,11.70
2017-12-16T20:20:22.070Z,9.00
2017-12-16T20:22:50.090Z,10.85
2017-12-16T20:25:18.177Z,11.57
2017-12-16T20:27:46.205Z,9.43
2017-12-16T20:30:15.119Z,7.82
2017-12-16T20:32:43.939Z,8.52
2017-12-16T20:35:11.980Z,13.88
2017-12-16T20:37:40.781Z,8.15
2017-12-16T20:40:09.596Z,9.43
2017-12-16T20:42:37.669Z,12.37
2017-12-16T20:45:06.269Z,7.95
2017-12-16T20:47:34.293Z,9.25
2017-12-16T20:50:02.329Z,12.15
2017-12-16T20:52:30.405Z,11.12
2017-12-16T20:54:58.492Z,11.25
2017-12-16T20:57:26.542Z,12.30
2017-12-16T20:59:54.577Z,10.45
2017-12-16T21:02:23.393Z,12.32
2017-12-16T21:04:51.425Z,9.68
2017-12-16T21:07:19.609Z,10.95
2017-12-16T21:09:49.352Z,8.57
2017-12-16T21:12:18.305Z,16.05
2017-12-16T21:14:46.388Z,7.95
2017-12-16T21:17:14.416Z,10.15
2017-12-16T21:19:42.452Z,11.30
2017-12-16T21:22:10.534Z,10.27
2017-12-16T21:24:39.490Z,14.15
2017-12-16T21:27:07.531Z,8.95
2017-12-16T21:29:35.592Z,9.30
2017-12-16T21:32:04.393Z,8.38
2017-12-16T21:34:32.578Z,9.75
2017-12-16T21:37:01.366Z,8.18
2017-12-16T21:39:30.155Z,11.50
2017-12-16T21:41:58.250Z,11.65
2017-12-16T21:44:27.054Z,10.68
2017-12-16T21:46:55.934Z,9.88
2017-12-16T21:49:23.958Z,9.60
2017-12-16T21:51:52.046Z,8.60
2017-12-16T21:54:20.095Z,8.65
2017-12-16T21:56:48.125Z,11.00
2017-12-16T21:59:16.184Z,9.10
2017-12-16T22:01:44.985Z,9.27
2017-12-16T22:04:13.809Z,7.22
2017-12-16T22:06:41.850Z,8.75
2017-12-16T22:09:09.926Z,13.10
2017-12-16T22:11:38.045Z,8.35
2017-12-16T22:14:06.892Z,10.45
2017-12-16T22:16:34.921Z,8.13
2017-12-16T22:19:03.737Z,12.52
2017-12-16T22:21:31.794Z,6.43
2017-12-16T22:23:59.873Z,6.10
2017-12-16T22:26:27.891Z,6.12
2017-12-16T22:28:56.324Z,7.00
2017-12-16T22:31:24.381Z,6.60
2017-12-16T22:33:52.545Z,5.90
2017-12-16T22:36:21.330Z,4.45
2017-12-16T22:38:49.361Z,8.32
2017-12-16T22:41:17.413Z,6.85
2017-12-16T22:43:46.290Z,8.10
2017-12-16T22:46:14.356Z,5.57
2017-12-16T22:48:43.160Z,7.55
2017-12-16T22:51:11.198Z,7.90
2017-12-16T22:53:40.254Z,7.78
2017-12-16T22:56:08.350Z,4.78
2017-12-16T22:58:36.392Z,9.82
2017-12-16T23:01:06.668Z,6.65
2017-12-16T23:03:35.652Z,9.98
2017-12-16T23:06:03.684Z,8.25
2017-12-16T23:08:32.508Z,6.87
2017-12-16T23:11:00.594Z,5.55
2017-12-16T23:13:29.457Z,7.05
2017-12-16T23:15:57.572Z,7.75
2017-12-16T23:18:25.612Z,8.75
2017-12-16T23:20:53.647Z,5.82
2017-12-16T23:23:21.757Z,7.47
2017-12-16T23:25:49.785Z,7.05
2017-12-16T23:28:18.605Z,7.35
2017-12-16T23:30:46.717Z,6.55
2017-12-16T23:33:14.753Z,7.65
2017-12-16T23:35:43.609Z,5.18
2017-12-16T23:38:11.685Z,6.22
2017-12-16T23:40:39.853Z,5.10
2017-12-16T23:43:07.960Z,5.60
2017-12-16T23:45:36.005Z,7.85
2017-12-16T23:48:04.887Z,7.90
2017-12-16T23:50:32.942Z,4.25
2017-12-16T23:53:00.964Z,5.68
2017-12-16T23:55:29.952Z,6.12
2017-12-16T23:57:57.985Z,7.32
